sensor_id;sensor_type;location;lat;lon;timestamp;P1;durP1;ratioP1;P2;durP2;ratioP2
25409;SDS011;13339;50.840;4.346;2022-12-10T00:00:41;58.13;;;24.40;;
25409;SDS011;13339;50.840;4.346;2022-12-10T00:03:07;62.87;;;25.63;;
25409;SDS011;13339;50.840;4.346;2022-12-10T00:05:33;63.90;;;26.50;;
25409;SDS011;13339;50.840;4.346;2022-12-10T00:07:59;53.47;;;24.67;;
25409;SDS011;13339;50.840;4.346;2022-12-10T00:10:25;58.03;;;24.73;;
25409;SDS011;13339;50.840;4.346;2022-12-10T00:12:50;58.13;;;25.33;;
25409;SDS011;13339;50.840;4.346;2022-12-10T00:15:16;53.00;;;23.83;;
25409;SDS011;13339;50.840;4.346;2022-12-10T00:17:42;55.90;;;24.97;;
25409;SDS011;13339;50.840;4.346;2022-12-10T00:20:08;53.53;;;24.47;;
25409;SDS011;13339;50.840;4.346;2022-12-10T00:22:34;58.07;;;24.50;;
25409;SDS011;13339;50.840;4.346;2022-12-10T00:25:00;52.47;;;23.93;;
25409;SDS011;13339;50.840;4.346;2022-12-10T00:27:26;49.43;;;24.17;;
25409;SDS011;13339;50.840;4.346;2022-12-10T00:29:51;56.83;;;26.03;;
25409;SDS011;13339;50.840;4.346;2022-12-10T00:32:17;54.03;;;24.63;;
25409;SDS011;13339;50.840;4.346;2022-12-10T00:34:42;52.20;;;25.07;;
25409;SDS011;13339;50.840;4.346;2022-12-10T00:37:08;55.37;;;25.60;;
25409;SDS011;13339;50.840;4.346;2022-12-10T00:39:33;53.93;;;24.60;;
25409;SDS011;13339;50.840;4.346;2022-12-10T00:41:59;57.33;;;25.67;;
25409;SDS011;13339;50.840;4.346;2022-12-10T00:44:25;60.00;;;24.43;;
25409;SDS011;13339;50.840;4.346;2022-12-10T00:46:50;61.03;;;26.17;;
25409;SDS011;13339;50.840;4.346;2022-12-10T00:49:16;58.07;;;26.77;;
25409;SDS011;13339;50.840;4.346;2022-12-10T00:51:41;64.50;;;27.23;;
25409;SDS011;13339;50.840;4.346;2022-12-10T00:54:07;58.80;;;25.87;;
25409;SDS011;13339;50.840;4.346;2022-12-10T00:56:33;54.33;;;25.30;;
25409;SDS011;13339;50.840;4.346;2022-12-10T00:59:00;53.97;;;24.87;;
25409;SDS011;13339;50.840;4.346;2022-12-10T01:01:27;50.87;;;23.90;;
25409;SDS011;13339;50.840;4.346;2022-12-10T01:03:57;51.27;;;23.53;;
25409;SDS011;13339;50.840;4.346;2022-12-10T01:06:32;52.87;;;25.80;;
25409;SDS011;13339;50.840;4.346;2022-12-10T01:09:00;57.30;;;26.20;;
25409;SDS011;13339;50.840;4.346;2022-12-10T01:11:30;60.80;;;25.17;;
25409;SDS011;13339;50.840;4.346;2022-12-10T01:13:58;61.47;;;25.97;;
25409;SDS011;13339;50.840;4.346;2022-12-10T01:16:24;57.87;;;27.77;;
25409;SDS011;13339;50.840;4.346;2022-12-10T01:18:54;64.07;;;27.33;;
25409;SDS011;13339;50.840;4.346;2022-12-10T01:21:21;59.60;;;28.73;;
25409;SDS011;13339;50.840;4.346;2022-12-10T01:23:47;58.53;;;27.97;;
25409;SDS011;13339;50.840;4.346;2022-12-10T01:26:18;62.13;;;29.03;;
25409;SDS011;13339;50.840;4.346;2022-12-10T01:28:45;65.47;;;29.40;;
25409;SDS011;13339;50.840;4.346;2022-12-10T01:33:47;61.63;;;27.13;;
25409;SDS011;13339;50.840;4.346;2022-12-10T01:36:14;58.53;;;27.70;;
25409;SDS011;13339;50.840;4.346;2022-12-10T01:38:41;64.50;;;29.57;;
25409;SDS011;13339;50.840;4.346;2022-12-10T01:41:10;60.50;;;28.43;;
25409;SDS011;13339;50.840;4.346;2022-12-10T01:43:50;60.70;;;28.93;;
25409;SDS011;13339;50.840;4.346;2022-12-10T01:46:18;62.50;;;30.00;;
25409;SDS011;13339;50.840;4.346;2022-12-10T01:48:44;58.33;;;28.03;;
25409;SDS011;13339;50.840;4.346;2022-12-10T01:51:10;62.93;;;29.53;;
25409;SDS011;13339;50.840;4.346;2022-12-10T01:53:36;66.27;;;30.37;;
25409;SDS011;13339;50.840;4.346;2022-12-10T01:56:02;56.47;;;28.20;;
25409;SDS011;13339;50.840;4.346;2022-12-10T01:58:28;57.70;;;28.50;;
25409;SDS011;13339;50.840;4.346;2022-12-10T02:01:01;64.10;;;29.27;;
25409;SDS011;13339;50.840;4.346;2022-12-10T02:06:24;62.00;;;29.03;;
25409;SDS011;13339;50.840;4.346;2022-12-10T02:11:31;57.37;;;28.00;;
25409;SDS011;13339;50.840;4.346;2022-12-10T02:14:12;57.17;;;28.00;;
25409;SDS011;13339;50.840;4.346;2022-12-10T02:17:02;54.40;;;28.43;;
25409;SDS011;13339;50.840;4.346;2022-12-10T02:22:06;58.00;;;29.37;;
25409;SDS011;13339;50.840;4.346;2022-12-10T02:24:34;60.33;;;30.40;;
25409;SDS011;13339;50.840;4.346;2022-12-10T02:27:10;62.63;;;29.70;;
25409;SDS011;13339;50.840;4.346;2022-12-10T02:29:38;65.87;;;30.13;;
25409;SDS011;13339;50.840;4.346;2022-12-10T02:32:09;64.60;;;30.87;;
25409;SDS011;13339;50.840;4.346;2022-12-10T02:34:50;60.63;;;29.67;;
25409;SDS011;13339;50.840;4.346;2022-12-10T02:37:20;62.80;;;31.10;;
25409;SDS011;13339;50.840;4.346;2022-12-10T02:39:58;69.37;;;31.30;;
25409;SDS011;13339;50.840;4.346;2022-12-10T02:42:26;67.77;;;31.83;;
25409;SDS011;13339;50.840;4.346;2022-12-10T02:44:55;63.50;;;31.37;;
25409;SDS011;13339;50.840;4.346;2022-12-10T02:47:22;67.73;;;32.00;;
25409;SDS011;13339;50.840;4.346;2022-12-10T02:49:50;68.07;;;33.37;;
25409;SDS011;13339;50.840;4.346;2022-12-10T02:52:19;71.10;;;34.27;;
25409;SDS011;13339;50.840;4.346;2022-12-10T02:54:45;68.03;;;32.20;;
25409;SDS011;13339;50.840;4.346;2022-12-10T03:10:58;83.20;;;34.07;;
25409;SDS011;13339;50.840;4.346;2022-12-10T03:13:43;86.20;;;36.57;;
25409;SDS011;13339;50.840;4.346;2022-12-10T03:16:11;86.77;;;36.93;;
25409;SDS011;13339;50.840;4.346;2022-12-10T03:18:38;82.00;;;35.70;;
25409;SDS011;13339;50.840;4.346;2022-12-10T03:21:05;86.67;;;35.73;;
25409;SDS011;13339;50.840;4.346;2022-12-10T03:23:32;78.87;;;34.43;;
25409;SDS011;13339;50.840;4.346;2022-12-10T03:26:01;83.27;;;36.00;;
25409;SDS011;13339;50.840;4.346;2022-12-10T03:28:28;78.37;;;33.27;;
25409;SDS011;13339;50.840;4.346;2022-12-10T03:30:59;81.67;;;33.87;;
25409;SDS011;13339;50.840;4.346;2022-12-10T03:33:27;91.27;;;35.37;;
25409;SDS011;13339;50.840;4.346;2022-12-10T03:35:53;91.50;;;35.07;;
25409;SDS011;13339;50.840;4.346;2022-12-10T03:38:19;80.43;;;34.33;;
25409;SDS011;13339;50.840;4.346;2022-12-10T03:40:45;80.67;;;35.23;;
25409;SDS011;13339;50.840;4.346;2022-12-10T03:43:13;84.20;;;36.10;;
25409;SDS011;13339;50.840;4.346;2022-12-10T03:45:40;94.23;;;37.53;;
25409;SDS011;13339;50.840;4.346;2022-12-10T03:48:06;96.60;;;36.30;;
25409;SDS011;13339;50.840;4.346;2022-12-10T03:50:32;95.30;;;36.83;;
25409;SDS011;13339;50.840;4.346;2022-12-10T03:52:57;96.37;;;37.50;;
25409;SDS011;13339;50.840;4.346;2022-12-10T03:55:23;88.47;;;34.47;;
25409;SDS011;13339;50.840;4.346;2022-12-10T03:57:48;90.20;;;34.47;;
25409;SDS011;13339;50.840;4.346;2022-12-10T04:00:14;86.20;;;35.50;;
25409;SDS011;13339;50.840;4.346;2022-12-10T04:02:40;90.27;;;36.73;;
25409;SDS011;13339;50.840;4.346;2022-12-10T04:05:05;87.37;;;35.03;;
25409;SDS011;13339;50.840;4.346;2022-12-10T04:07:32;89.43;;;34.93;;
25409;SDS011;13339;50.840;4.346;2022-12-10T04:09:58;89.80;;;33.90;;
25409;SDS011;13339;50.840;4.346;2022-12-10T04:12:24;83.73;;;33.53;;
25409;SDS011;13339;50.840;4.346;2022-12-10T04:14:49;90.23;;;34.17;;
25409;SDS011;13339;50.840;4.346;2022-12-10T04:17:33;85.77;;;33.07;;
25409;SDS011;13339;50.840;4.346;2022-12-10T04:19:59;85.23;;;34.30;;
25409;SDS011;13339;50.840;4.346;2022-12-10T04:22:24;86.30;;;34.23;;
25409;SDS011;13339;50.840;4.346;2022-12-10T04:25:10;92.30;;;35.23;;
25409;SDS011;13339;50.840;4.346;2022-12-10T04:27:55;86.50;;;34.07;;
25409;SDS011;13339;50.840;4.346;2022-12-10T04:30:21;85.87;;;32.90;;
25409;SDS011;13339;50.840;4.346;2022-12-10T04:32:46;86.57;;;32.53;;
25409;SDS011;13339;50.840;4.346;2022-12-10T04:35:12;86.87;;;33.00;;
25409;SDS011;13339;50.840;4.346;2022-12-10T04:37:37;82.53;;;33.43;;
25409;SDS011;13339;50.840;4.346;2022-12-10T04:40:04;96.63;;;35.63;;
25409;SDS011;13339;50.840;4.346;2022-12-10T04:42:30;93.43;;;36.57;;
25409;SDS011;13339;50.840;4.346;2022-12-10T04:44:55;95.80;;;35.93;;
25409;SDS011;13339;50.840;4.346;2022-12-10T04:47:21;96.80;;;35.60;;
25409;SDS011;13339;50.840;4.346;2022-12-10T04:49:47;95.07;;;37.17;;
25409;SDS011;13339;50.840;4.346;2022-12-10T04:52:13;95.17;;;35.43;;
25409;SDS011;13339;50.840;4.346;2022-12-10T04:54:40;92.97;;;34.87;;
25409;SDS011;13339;50.840;4.346;2022-12-10T04:57:06;94.03;;;35.57;;
25409;SDS011;13339;50.840;4.346;2022-12-10T04:59:32;100.07;;;36.87;;
25409;SDS011;13339;50.840;4.346;2022-12-10T05:01:58;94.03;;;35.70;;
25409;SDS011;13339;50.840;4.346;2022-12-10T05:04:24;98.43;;;35.77;;
25409;SDS011;13339;50.840;4.346;2022-12-10T05:06:49;100.40;;;36.20;;
25409;SDS011;13339;50.840;4.346;2022-12-10T05:09:15;96.63;;;35.17;;
25409;SDS011;13339;50.840;4.346;2022-12-10T05:11:42;98.80;;;36.13;;
25409;SDS011;13339;50.840;4.346;2022-12-10T05:14:10;97.90;;;37.00;;
25409;SDS011;13339;50.840;4.346;2022-12-10T05:16:37;91.83;;;36.17;;
25409;SDS011;13339;50.840;4.346;2022-12-10T05:19:02;86.03;;;34.13;;
25409;SDS011;13339;50.840;4.346;2022-12-10T05:21:28;88.90;;;32.53;;
25409;SDS011;13339;50.840;4.346;2022-12-10T05:24:13;93.90;;;35.20;;
25409;SDS011;13339;50.840;4.346;2022-12-10T05:26:39;93.23;;;33.93;;
25409;SDS011;13339;50.840;4.346;2022-12-10T05:29:05;85.30;;;32.93;;
25409;SDS011;13339;50.840;4.346;2022-12-10T05:31:31;92.23;;;31.30;;
25409;SDS011;13339;50.840;4.346;2022-12-10T05:33:57;81.20;;;30.90;;
25409;SDS011;13339;50.840;4.346;2022-12-10T05:36:24;85.27;;;31.40;;
25409;SDS011;13339;50.840;4.346;2022-12-10T05:38:52;87.43;;;30.47;;
25409;SDS011;13339;50.840;4.346;2022-12-10T05:41:20;79.07;;;29.83;;
25409;SDS011;13339;50.840;4.346;2022-12-10T05:43:52;80.60;;;30.70;;
25409;SDS011;13339;50.840;4.346;2022-12-10T05:46:20;84.10;;;31.23;;
25409;SDS011;13339;50.840;4.346;2022-12-10T05:48:48;82.40;;;31.90;;
25409;SDS011;13339;50.840;4.346;2022-12-10T05:51:15;88.67;;;33.07;;
25409;SDS011;13339;50.840;4.346;2022-12-10T05:53:42;83.07;;;32.03;;
25409;SDS011;13339;50.840;4.346;2022-12-10T05:56:09;83.93;;;30.27;;
25409;SDS011;13339;50.840;4.346;2022-12-10T05:58:38;78.63;;;30.53;;
25409;SDS011;13339;50.840;4.346;2022-12-10T06:01:08;78.87;;;30.87;;
25409;SDS011;13339;50.840;4.346;2022-12-10T06:03:35;80.90;;;32.33;;
25409;SDS011;13339;50.840;4.346;2022-12-10T06:06:01;77.17;;;29.80;;
25409;SDS011;13339;50.840;4.346;2022-12-10T06:08:27;98.23;;;33.23;;
25409;SDS011;13339;50.840;4.346;2022-12-10T06:10:53;90.30;;;33.73;;
25409;SDS011;13339;50.840;4.346;2022-12-10T06:13:19;86.60;;;29.97;;
25409;SDS011;13339;50.840;4.346;2022-12-10T06:15:45;82.77;;;31.13;;
25409;SDS011;13339;50.840;4.346;2022-12-10T06:18:10;88.83;;;31.73;;
25409;SDS011;13339;50.840;4.346;2022-12-10T06:20:39;94.23;;;31.40;;
25409;SDS011;13339;50.840;4.346;2022-12-10T06:23:05;88.90;;;31.17;;
25409;SDS011;13339;50.840;4.346;2022-12-10T06:25:30;90.33;;;31.33;;
25409;SDS011;13339;50.840;4.346;2022-12-10T06:27:56;84.00;;;30.37;;
25409;SDS011;13339;50.840;4.346;2022-12-10T06:30:21;89.87;;;29.47;;
25409;SDS011;13339;50.840;4.346;2022-12-10T06:32:47;91.00;;;32.03;;
25409;SDS011;13339;50.840;4.346;2022-12-10T06:35:13;86.70;;;31.53;;
25409;SDS011;13339;50.840;4.346;2022-12-10T06:37:38;87.23;;;31.37;;
25409;SDS011;13339;50.840;4.346;2022-12-10T06:40:04;81.60;;;29.97;;
25409;SDS011;13339;50.840;4.346;2022-12-10T06:42:30;84.80;;;31.30;;
25409;SDS011;13339;50.840;4.346;2022-12-10T06:44:56;94.80;;;32.13;;
25409;SDS011;13339;50.840;4.346;2022-12-10T06:47:22;101.17;;;31.57;;
25409;SDS011;13339;50.840;4.346;2022-12-10T06:49:48;82.00;;;31.67;;
25409;SDS011;13339;50.840;4.346;2022-12-10T06:52:13;87.00;;;31.57;;
25409;SDS011;13339;50.840;4.346;2022-12-10T06:54:39;85.53;;;31.33;;
25409;SDS011;13339;50.840;4.346;2022-12-10T06:57:05;88.10;;;32.53;;
25409;SDS011;13339;50.840;4.346;2022-12-10T06:59:30;82.10;;;30.00;;
25409;SDS011;13339;50.840;4.346;2022-12-10T07:01:56;79.60;;;30.53;;
25409;SDS011;13339;50.840;4.346;2022-12-10T07:04:22;83.37;;;30.43;;
25409;SDS011;13339;50.840;4.346;2022-12-10T07:06:48;80.87;;;30.57;;
25409;SDS011;13339;50.840;4.346;2022-12-10T07:09:13;86.50;;;28.17;;
25409;SDS011;13339;50.840;4.346;2022-12-10T07:11:39;78.10;;;28.93;;
25409;SDS011;13339;50.840;4.346;2022-12-10T07:14:04;79.83;;;30.93;;
25409;SDS011;13339;50.840;4.346;2022-12-10T07:16:30;82.43;;;31.20;;
25409;SDS011;13339;50.840;4.346;2022-12-10T07:18:57;94.83;;;31.70;;
25409;SDS011;13339;50.840;4.346;2022-12-10T07:21:28;91.83;;;30.67;;
25409;SDS011;13339;50.840;4.346;2022-12-10T07:23:57;78.53;;;30.20;;
25409;SDS011;13339;50.840;4.346;2022-12-10T07:26:27;82.60;;;30.07;;
25409;SDS011;13339;50.840;4.346;2022-12-10T07:28:54;82.37;;;28.33;;
25409;SDS011;13339;50.840;4.346;2022-12-10T07:31:20;86.07;;;29.83;;
25409;SDS011;13339;50.840;4.346;2022-12-10T07:33:46;86.10;;;29.90;;
25409;SDS011;13339;50.840;4.346;2022-12-10T07:36:13;79.57;;;29.40;;
25409;SDS011;13339;50.840;4.346;2022-12-10T07:38:39;85.03;;;30.73;;
25409;SDS011;13339;50.840;4.346;2022-12-10T07:41:10;79.10;;;27.83;;
25409;SDS011;13339;50.840;4.346;2022-12-10T07:43:37;75.47;;;27.63;;
25409;SDS011;13339;50.840;4.346;2022-12-10T07:46:08;91.50;;;30.03;;
25409;SDS011;13339;50.840;4.346;2022-12-10T07:48:36;87.33;;;30.53;;
25409;SDS011;13339;50.840;4.346;2022-12-10T07:51:03;84.37;;;29.63;;
25409;SDS011;13339;50.840;4.346;2022-12-10T07:53:29;79.50;;;27.83;;
25409;SDS011;13339;50.840;4.346;2022-12-10T07:55:54;75.37;;;27.67;;
25409;SDS011;13339;50.840;4.346;2022-12-10T07:58:20;85.10;;;29.27;;
25409;SDS011;13339;50.840;4.346;2022-12-10T08:00:46;83.67;;;28.77;;
25409;SDS011;13339;50.840;4.346;2022-12-10T08:03:11;84.77;;;29.83;;
25409;SDS011;13339;50.840;4.346;2022-12-10T08:05:37;83.87;;;28.93;;
25409;SDS011;13339;50.840;4.346;2022-12-10T08:08:03;80.37;;;28.03;;
25409;SDS011;13339;50.840;4.346;2022-12-10T08:10:29;90.57;;;28.50;;
25409;SDS011;13339;50.840;4.346;2022-12-10T08:12:57;84.10;;;30.03;;
25409;SDS011;13339;50.840;4.346;2022-12-10T08:15:23;84.37;;;29.37;;
25409;SDS011;13339;50.840;4.346;2022-12-10T08:17:49;91.77;;;27.33;;
25409;SDS011;13339;50.840;4.346;2022-12-10T08:20:16;82.30;;;29.70;;
25409;SDS011;13339;50.840;4.346;2022-12-10T08:22:41;83.03;;;26.73;;
25409;SDS011;13339;50.840;4.346;2022-12-10T08:25:07;81.03;;;29.00;;
25409;SDS011;13339;50.840;4.346;2022-12-10T08:27:32;74.43;;;25.50;;
25409;SDS011;13339;50.840;4.346;2022-12-10T08:29:58;69.40;;;25.33;;
25409;SDS011;13339;50.840;4.346;2022-12-10T08:32:24;76.27;;;28.00;;
25409;SDS011;13339;50.840;4.346;2022-12-10T08:34:49;79.40;;;25.93;;
25409;SDS011;13339;50.840;4.346;2022-12-10T08:37:15;73.40;;;25.47;;
25409;SDS011;13339;50.840;4.346;2022-12-10T08:39:40;71.43;;;25.67;;
25409;SDS011;13339;50.840;4.346;2022-12-10T08:42:06;78.80;;;26.57;;
25409;SDS011;13339;50.840;4.346;2022-12-10T08:44:32;74.50;;;23.53;;
25409;SDS011;13339;50.840;4.346;2022-12-10T08:46:57;67.77;;;25.60;;
25409;SDS011;13339;50.840;4.346;2022-12-10T08:49:23;68.27;;;24.30;;
25409;SDS011;13339;50.840;4.346;2022-12-10T08:51:48;71.27;;;25.23;;
25409;SDS011;13339;50.840;4.346;2022-12-10T08:54:14;71.57;;;26.07;;
25409;SDS011;13339;50.840;4.346;2022-12-10T08:56:40;72.13;;;26.10;;
25409;SDS011;13339;50.840;4.346;2022-12-10T08:59:06;68.80;;;26.80;;
25409;SDS011;13339;50.840;4.346;2022-12-10T09:01:32;68.50;;;25.50;;
25409;SDS011;13339;50.840;4.346;2022-12-10T09:03:57;73.23;;;26.57;;
25409;SDS011;13339;50.840;4.346;2022-12-10T09:06:25;69.30;;;26.10;;
25409;SDS011;13339;50.840;4.346;2022-12-10T09:08:51;74.53;;;25.57;;
25409;SDS011;13339;50.840;4.346;2022-12-10T09:11:21;74.40;;;26.50;;
25409;SDS011;13339;50.840;4.346;2022-12-10T09:13:55;66.43;;;26.10;;
25409;SDS011;13339;50.840;4.346;2022-12-10T09:16:21;70.07;;;25.47;;
25409;SDS011;13339;50.840;4.346;2022-12-10T09:18:51;68.53;;;26.83;;
25409;SDS011;13339;50.840;4.346;2022-12-10T09:21:17;80.80;;;28.87;;
25409;SDS011;13339;50.840;4.346;2022-12-10T09:23:43;82.03;;;28.67;;
25409;SDS011;13339;50.840;4.346;2022-12-10T09:26:09;76.07;;;28.27;;
25409;SDS011;13339;50.840;4.346;2022-12-10T09:28:37;87.37;;;30.33;;
25409;SDS011;13339;50.840;4.346;2022-12-10T09:31:04;77.87;;;29.10;;
25409;SDS011;13339;50.840;4.346;2022-12-10T09:33:30;80.23;;;27.40;;
25409;SDS011;13339;50.840;4.346;2022-12-10T09:35:57;76.57;;;27.53;;
25409;SDS011;13339;50.840;4.346;2022-12-10T09:38:23;92.23;;;31.30;;
25409;SDS011;13339;50.840;4.346;2022-12-10T09:51:23;91.87;;;32.37;;
25409;SDS011;13339;50.840;4.346;2022-12-10T09:53:52;89.10;;;31.93;;
25409;SDS011;13339;50.840;4.346;2022-12-10T09:56:24;85.50;;;30.13;;
25409;SDS011;13339;50.840;4.346;2022-12-10T09:58:53;79.20;;;28.77;;
25409;SDS011;13339;50.840;4.346;2022-12-10T10:01:19;82.97;;;30.07;;
25409;SDS011;13339;50.840;4.346;2022-12-10T10:03:50;83.00;;;29.77;;
25409;SDS011;13339;50.840;4.346;2022-12-10T10:06:16;90.07;;;34.70;;
25409;SDS011;13339;50.840;4.346;2022-12-10T10:11:14;89.67;;;29.20;;
25409;SDS011;13339;50.840;4.346;2022-12-10T10:13:45;82.23;;;29.67;;
25409;SDS011;13339;50.840;4.346;2022-12-10T10:18:51;72.80;;;26.40;;
25409;SDS011;13339;50.840;4.346;2022-12-10T10:21:39;82.83;;;27.73;;
25409;SDS011;13339;50.840;4.346;2022-12-10T10:24:09;70.23;;;26.50;;
25409;SDS011;13339;50.840;4.346;2022-12-10T10:26:39;69.73;;;25.80;;
25409;SDS011;13339;50.840;4.346;2022-12-10T10:29:06;72.67;;;28.23;;
25409;SDS011;13339;50.840;4.346;2022-12-10T10:31:37;70.80;;;27.00;;
25409;SDS011;13339;50.840;4.346;2022-12-10T10:34:06;76.87;;;28.03;;
25409;SDS011;13339;50.840;4.346;2022-12-10T10:36:42;75.27;;;27.50;;
25409;SDS011;13339;50.840;4.346;2022-12-10T10:39:10;73.73;;;27.20;;
25409;SDS011;13339;50.840;4.346;2022-12-10T10:41:47;76.80;;;28.80;;
25409;SDS011;13339;50.840;4.346;2022-12-10T10:44:19;91.33;;;30.60;;
25409;SDS011;13339;50.840;4.346;2022-12-10T10:46:47;73.93;;;28.03;;
25409;SDS011;13339;50.840;4.346;2022-12-10T10:49:18;81.33;;;29.13;;
25409;SDS011;13339;50.840;4.346;2022-12-10T10:52:15;78.53;;;26.83;;
25409;SDS011;13339;50.840;4.346;2022-12-10T10:54:43;75.23;;;27.20;;
25409;SDS011;13339;50.840;4.346;2022-12-10T10:57:15;74.27;;;27.10;;
25409;SDS011;13339;50.840;4.346;2022-12-10T10:59:48;76.17;;;27.70;;
25409;SDS011;13339;50.840;4.346;2022-12-10T11:02:17;75.80;;;28.90;;
25409;SDS011;13339;50.840;4.346;2022-12-10T11:05:15;71.30;;;25.07;;
25409;SDS011;13339;50.840;4.346;2022-12-10T11:07:57;66.43;;;24.77;;
25409;SDS011;13339;50.840;4.346;2022-12-10T11:10:28;74.90;;;27.07;;
25409;SDS011;13339;50.840;4.346;2022-12-10T11:12:59;76.20;;;26.77;;
25409;SDS011;13339;50.840;4.346;2022-12-10T11:15:31;76.63;;;27.20;;
25409;SDS011;13339;50.840;4.346;2022-12-10T11:18:00;80.53;;;26.97;;
25409;SDS011;13339;50.840;4.346;2022-12-10T11:20:35;75.53;;;27.30;;
25409;SDS011;13339;50.840;4.346;2022-12-10T11:23:02;72.47;;;26.47;;
25409;SDS011;13339;50.840;4.346;2022-12-10T11:31:12;72.33;;;26.67;;
25409;SDS011;13339;50.840;4.346;2022-12-10T11:34:06;68.97;;;24.40;;
25409;SDS011;13339;50.840;4.346;2022-12-10T11:36:58;67.73;;;25.00;;
25409;SDS011;13339;50.840;4.346;2022-12-10T11:42:16;65.77;;;24.97;;
25409;SDS011;13339;50.840;4.346;2022-12-10T11:45:13;69.37;;;25.13;;
25409;SDS011;13339;50.840;4.346;2022-12-10T12:12:50;68.00;;;25.00;;
25409;SDS011;13339;50.840;4.346;2022-12-10T12:15:51;60.17;;;22.37;;
25409;SDS011;13339;50.840;4.346;2022-12-10T12:21:13;64.83;;;23.63;;
25409;SDS011;13339;50.840;4.346;2022-12-10T12:23:46;55.57;;;21.87;;
25409;SDS011;13339;50.840;4.346;2022-12-10T12:28:55;58.77;;;21.83;;
25409;SDS011;13339;50.840;4.346;2022-12-10T12:31:35;59.67;;;21.67;;
25409;SDS011;13339;50.840;4.346;2022-12-10T12:36:54;59.83;;;21.83;;
25409;SDS011;13339;50.840;4.346;2022-12-10T12:39:27;58.43;;;22.83;;
25409;SDS011;13339;50.840;4.346;2022-12-10T12:49:53;48.17;;;21.03;;
25409;SDS011;13339;50.840;4.346;2022-12-10T12:52:40;59.40;;;21.10;;
25409;SDS011;13339;50.840;4.346;2022-12-10T12:58:09;58.60;;;21.93;;
25409;SDS011;13339;50.840;4.346;2022-12-10T13:00:37;50.67;;;21.17;;
25409;SDS011;13339;50.840;4.346;2022-12-10T13:05:38;52.70;;;21.73;;
25409;SDS011;13339;50.840;4.346;2022-12-10T13:13:39;54.87;;;21.17;;
25409;SDS011;13339;50.840;4.346;2022-12-10T13:27:15;52.33;;;21.50;;
25409;SDS011;13339;50.840;4.346;2022-12-10T13:32:14;56.50;;;21.43;;
25409;SDS011;13339;50.840;4.346;2022-12-10T13:37:35;51.73;;;20.80;;
25409;SDS011;13339;50.840;4.346;2022-12-10T13:42:54;53.47;;;20.90;;
25409;SDS011;13339;50.840;4.346;2022-12-10T13:45:41;49.80;;;20.73;;
25409;SDS011;13339;50.840;4.346;2022-12-10T14:06:39;48.60;;;21.00;;
25409;SDS011;13339;50.840;4.346;2022-12-10T14:09:11;46.43;;;19.50;;
25409;SDS011;13339;50.840;4.346;2022-12-10T14:11:45;49.50;;;18.73;;
25409;SDS011;13339;50.840;4.346;2022-12-10T14:14:27;48.10;;;19.60;;
25409;SDS011;13339;50.840;4.346;2022-12-10T14:16:59;48.43;;;18.80;;
25409;SDS011;13339;50.840;4.346;2022-12-10T14:19:27;42.13;;;17.83;;
25409;SDS011;13339;50.840;4.346;2022-12-10T14:21:53;42.60;;;18.50;;
25409;SDS011;13339;50.840;4.346;2022-12-10T14:24:32;46.87;;;19.40;;
25409;SDS011;13339;50.840;4.346;2022-12-10T14:27:46;52.43;;;19.97;;
25409;SDS011;13339;50.840;4.346;2022-12-10T14:30:04;52.07;;;19.30;;
25409;SDS011;13339;50.840;4.346;2022-12-10T14:32:53;45.40;;;17.50;;
25409;SDS011;13339;50.840;4.346;2022-12-10T14:35:26;46.33;;;19.80;;
25409;SDS011;13339;50.840;4.346;2022-12-10T14:37:54;47.80;;;18.77;;
25409;SDS011;13339;50.840;4.346;2022-12-10T14:40:30;52.33;;;20.17;;
25409;SDS011;13339;50.840;4.346;2022-12-10T14:45:43;43.90;;;17.53;;
25409;SDS011;13339;50.840;4.346;2022-12-10T14:48:12;44.33;;;17.80;;
25409;SDS011;13339;50.840;4.346;2022-12-10T14:50:41;45.37;;;17.50;;
25409;SDS011;13339;50.840;4.346;2022-12-10T14:53:17;45.47;;;18.03;;
25409;SDS011;13339;50.840;4.346;2022-12-10T14:55:45;41.20;;;17.90;;
25409;SDS011;13339;50.840;4.346;2022-12-10T14:58:33;45.17;;;18.13;;
25409;SDS011;13339;50.840;4.346;2022-12-10T15:01:13;48.00;;;18.30;;
25409;SDS011;13339;50.840;4.346;2022-12-10T15:03:43;51.27;;;18.97;;
25409;SDS011;13339;50.840;4.346;2022-12-10T15:06:12;49.00;;;18.93;;
25409;SDS011;13339;50.840;4.346;2022-12-10T15:08:42;43.40;;;18.43;;
25409;SDS011;13339;50.840;4.346;2022-12-10T15:11:16;52.03;;;19.00;;
25409;SDS011;13339;50.840;4.346;2022-12-10T15:13:51;47.10;;;19.27;;
25409;SDS011;13339;50.840;4.346;2022-12-10T15:16:29;53.13;;;19.37;;
25409;SDS011;13339;50.840;4.346;2022-12-10T15:19:22;58.37;;;19.83;;
25409;SDS011;13339;50.840;4.346;2022-12-10T15:21:50;48.97;;;19.00;;
25409;SDS011;13339;50.840;4.346;2022-12-10T15:26:59;47.03;;;18.50;;
25409;SDS011;13339;50.840;4.346;2022-12-10T15:31:58;50.37;;;18.03;;
25409;SDS011;13339;50.840;4.346;2022-12-10T15:34:39;48.47;;;18.90;;
25409;SDS011;13339;50.840;4.346;2022-12-10T15:37:40;46.57;;;19.17;;
25409;SDS011;13339;50.840;4.346;2022-12-10T15:40:06;52.90;;;18.83;;
25409;SDS011;13339;50.840;4.346;2022-12-10T15:42:47;45.07;;;18.03;;
25409;SDS011;13339;50.840;4.346;2022-12-10T15:47:41;52.10;;;19.80;;
25409;SDS011;13339;50.840;4.346;2022-12-10T15:50:07;53.20;;;19.93;;
25409;SDS011;13339;50.840;4.346;2022-12-10T15:52:33;47.57;;;19.83;;
25409;SDS011;13339;50.840;4.346;2022-12-10T15:54:59;50.87;;;20.10;;
25409;SDS011;13339;50.840;4.346;2022-12-10T15:57:27;41.97;;;18.63;;
25409;SDS011;13339;50.840;4.346;2022-12-10T15:59:53;51.33;;;20.43;;
25409;SDS011;13339;50.840;4.346;2022-12-10T16:04:55;45.87;;;20.67;;
25409;SDS011;13339;50.840;4.346;2022-12-10T16:07:20;47.10;;;20.00;;
25409;SDS011;13339;50.840;4.346;2022-12-10T16:09:46;49.23;;;19.43;;
25409;SDS011;13339;50.840;4.346;2022-12-10T16:12:12;49.67;;;20.50;;
25409;SDS011;13339;50.840;4.346;2022-12-10T16:14:47;45.93;;;20.40;;
25409;SDS011;13339;50.840;4.346;2022-12-10T16:17:21;47.67;;;19.20;;
25409;SDS011;13339;50.840;4.346;2022-12-10T16:19:47;49.53;;;19.17;;
25409;SDS011;13339;50.840;4.346;2022-12-10T16:22:13;42.73;;;19.83;;
25409;SDS011;13339;50.840;4.346;2022-12-10T16:24:39;45.33;;;19.07;;
25409;SDS011;13339;50.840;4.346;2022-12-10T16:27:08;44.20;;;19.60;;
25409;SDS011;13339;50.840;4.346;2022-12-10T16:29:39;44.23;;;18.67;;
25409;SDS011;13339;50.840;4.346;2022-12-10T16:32:05;47.03;;;18.53;;
25409;SDS011;13339;50.840;4.346;2022-12-10T16:34:30;47.87;;;18.77;;
25409;SDS011;13339;50.840;4.346;2022-12-10T16:36:56;43.20;;;19.80;;
25409;SDS011;13339;50.840;4.346;2022-12-10T16:39:21;44.00;;;20.07;;
25409;SDS011;13339;50.840;4.346;2022-12-10T16:41:53;49.90;;;19.53;;
25409;SDS011;13339;50.840;4.346;2022-12-10T16:44:19;46.93;;;18.90;;
25409;SDS011;13339;50.840;4.346;2022-12-10T16:46:45;46.70;;;20.50;;
25409;SDS011;13339;50.840;4.346;2022-12-10T16:49:10;47.27;;;21.57;;
25409;SDS011;13339;50.840;4.346;2022-12-10T16:51:36;43.17;;;19.07;;
25409;SDS011;13339;50.840;4.346;2022-12-10T16:54:02;43.47;;;19.10;;
25409;SDS011;13339;50.840;4.346;2022-12-10T16:56:28;44.60;;;20.23;;
25409;SDS011;13339;50.840;4.346;2022-12-10T16:58:55;49.57;;;20.93;;
25409;SDS011;13339;50.840;4.346;2022-12-10T17:01:21;48.27;;;20.57;;
25409;SDS011;13339;50.840;4.346;2022-12-10T17:03:55;51.10;;;21.83;;